createdAt,value
2023-02-24T00:02:02.762Z,84
2023-02-24T00:12:10.515Z,84
2023-02-24T00:22:18.437Z,85
2023-02-24T00:32:26.489Z,85
2023-02-24T00:42:34.159Z,87
2023-02-24T00:52:43.322Z,75
2023-02-24T01:02:51.212Z,74
2023-02-24T01:12:59.044Z,74
2023-02-24T01:23:08.145Z,79
2023-02-24T01:33:16.035Z,80
2023-02-24T01:43:23.924Z,82
2023-02-24T01:53:31.705Z,83
2023-02-24T02:03:39.570Z,83
2023-02-24T02:13:47.445Z,81
2023-02-24T02:23:55.207Z,83
2023-02-24T02:34:03.003Z,82
2023-02-24T02:44:10.757Z,81
2023-02-24T02:54:18.687Z,81
2023-02-24T03:04:26.590Z,80
2023-02-24T03:14:34.478Z,80
2023-02-24T03:24:42.248Z,79
2023-02-24T03:34:50.136Z,80
2023-02-24T03:44:58.990Z,78
2023-02-24T03:55:06.869Z,78
2023-02-24T04:05:14.903Z,77
2023-02-24T04:15:22.710Z,77
2023-02-24T04:25:30.499Z,75
2023-02-24T04:35:38.280Z,75
2023-02-24T04:45:46.210Z,75
2023-02-24T04:55:54.200Z,73
2023-02-24T05:06:02.162Z,72
2023-02-24T05:16:10.159Z,70
2023-02-24T05:26:17.958Z,70
2023-02-24T05:36:25.823Z,70
2023-02-24T05:46:33.735Z,71
2023-02-24T05:56:41.552Z,71
2023-02-24T06:06:52.139Z,70
2023-02-24T06:16:50.072Z,69
2023-02-24T06:26:57.981Z,69
2023-02-24T06:37:06.948Z,69
2023-02-24T06:47:08.435Z,69
2023-02-24T06:57:07.969Z,68
2023-02-24T07:07:17.099Z,68
2023-02-24T07:17:25.027Z,69
2023-02-24T07:27:33.099Z,68
2023-02-24T07:37:41.099Z,68
2023-02-24T07:47:49.251Z,68
2023-02-24T07:57:57.109Z,67
2023-02-24T08:08:06.253Z,66
2023-02-24T08:18:05.303Z,66
2023-02-24T08:28:12.954Z,62
2023-02-24T08:38:20.654Z,61
2023-02-24T08:48:28.116Z,60
2023-02-24T08:58:37.062Z,60
2023-02-24T09:08:37.191Z,58
2023-02-24T09:18:45.172Z,57
2023-02-24T09:28:53.496Z,56
2023-02-24T09:39:01.816Z,56
2023-02-24T09:49:14.210Z,56
2023-02-24T09:59:13.204Z,56
2023-02-24T10:09:21.487Z,55
2023-02-24T10:19:29.896Z,54
2023-02-24T10:29:37.753Z,53
2023-02-24T10:39:46.905Z,53
2023-02-24T10:49:54.419Z,52
2023-02-24T11:00:02.511Z,52
2023-02-24T11:10:10.457Z,52
2023-02-24T11:20:19.030Z,51
2023-02-24T11:30:26.754Z,51
2023-02-24T11:40:35.676Z,50
2023-02-24T11:50:43.545Z,50
2023-02-24T12:00:52.874Z,50
2023-02-24T12:11:01.451Z,49
2023-02-24T12:21:09.417Z,49
2023-02-24T12:31:19.097Z,49
2023-02-24T12:41:27.186Z,48
2023-02-24T12:51:34.596Z,48
2023-02-24T13:01:42.558Z,48
2023-02-24T13:12:32.217Z,47
2023-02-24T13:21:42.831Z,46
2023-02-24T13:31:51.913Z,46
2023-02-24T13:42:00.298Z,46
2023-02-24T13:52:08.385Z,46
2023-02-24T14:02:17.775Z,46
2023-02-24T14:12:25.924Z,44
2023-02-24T14:22:35.066Z,43
2023-02-24T14:32:45.311Z,45
2023-02-24T14:42:54.011Z,45
2023-02-24T14:53:02.720Z,45
2023-02-24T15:03:11.162Z,46
2023-02-24T15:13:20.356Z,47
2023-02-24T15:23:28.293Z,47
2023-02-24T15:33:36.381Z,48
2023-02-24T15:43:44.483Z,48
2023-02-24T15:53:52.417Z,48
2023-02-24T16:03:59.890Z,48
2023-02-24T16:14:07.871Z,47
2023-02-24T16:24:15.734Z,45
2023-02-24T16:34:23.113Z,44
2023-02-24T16:44:31.070Z,44
2023-02-24T16:54:38.930Z,44
2023-02-24T17:04:46.764Z,44
2023-02-24T17:14:54.584Z,45
2023-02-24T17:25:02.665Z,45
2023-02-24T17:35:10.699Z,45
2023-02-24T17:45:18.751Z,46
2023-02-24T17:55:18.929Z,46
2023-02-24T18:05:36.170Z,47
2023-02-24T18:15:38.146Z,48
2023-02-24T18:25:37.673Z,48
2023-02-24T18:35:43.343Z,50
2023-02-24T18:45:54.668Z,50
2023-02-24T18:55:51.544Z,50
2023-02-24T19:16:18.737Z,51
2023-02-24T19:26:09.138Z,52
2023-02-24T19:36:14.447Z,53
2023-02-24T19:46:19.714Z,53
2023-02-24T19:56:26.623Z,54
2023-02-24T20:06:36.673Z,56
2023-02-24T20:26:36.899Z,55
2023-02-24T20:36:49.376Z,56
2023-02-24T20:47:02.706Z,55
2023-02-24T20:57:03.148Z,55
2023-02-24T21:07:03.415Z,56
2023-02-24T21:17:09.534Z,56
2023-02-24T21:27:11.958Z,57
2023-02-24T21:37:16.001Z,58
2023-02-24T21:47:16.634Z,58
2023-02-24T21:57:16.316Z,58
2023-02-24T22:07:24.558Z,58
2023-02-24T22:17:32.703Z,58
2023-02-24T22:27:40.942Z,59
2023-02-24T22:37:50.522Z,59
2023-02-24T22:48:01.543Z,60
2023-02-24T22:58:00.467Z,59
2023-02-24T23:08:08.600Z,60
2023-02-24T23:18:16.817Z,60
2023-02-24T23:28:25.085Z,61
2023-02-24T23:38:33.304Z,61
2023-02-24T23:48:43.394Z,62
2023-02-24T23:58:51.695Z,62
